Time;durP1;ratioP1;P1;durP2;ratioP2;P2;SDS_P1;SDS_P2;PMS_P1;PMS_P2;Temp;Humidity;BMP_temperature;BMP_pressure;BME280_temperature;BME280_humidity;BME280_pressure;Samples;Min_cycle;Max_cycle;Signal;HPM_P1;HPM_P2
2021/07/17 03:47:51;;;;;;;9.90;7.83;;;21.00;98.30;;;;;;4113759;28;20451;-88
2021/07/17 19:03:49;;;;;;;5.90;2.70;;;23.60;94.70;;;;;;4709804;23;21631;-83
2021/07/17 19:05:56;;;;;;;7.37;3.00;;;23.50;96.00;;;;;;4126215;28;20503;-81
2021/07/17 19:08:33;;;;;;;4.40;2.80;;;23.40;95.10;;;;;;4126506;28;20467;-82
2021/07/17 19:10:36;;;;;;;5.47;2.60;;;23.30;96.70;;;;;;4127160;28;20467;-81
2021/07/17 19:12:41;;;;;;;4.63;2.90;;;23.40;96.20;;;;;;4127999;28;20879;-82
2021/07/17 19:14:50;;;;;;;5.53;2.87;;;23.40;96.50;;;;;;4128578;28;20486;-81
2021/07/17 19:16:53;;;;;;;3.70;2.40;;;23.40;97.10;;;;;;4133426;28;20462;-81
2021/07/17 19:18:59;;;;;;;3.90;2.70;;;23.30;96.90;;;;;;4126992;28;20476;-81
2021/07/17 19:21:03;;;;;;;4.83;3.10;;;23.20;96.90;;;;;;4130150;28;20841;-81
2021/07/17 19:23:08;;;;;;;4.30;3.00;;;23.20;98.30;;;;;;4125423;28;20989;-82
2021/07/17 19:25:13;;;;;;;4.40;2.83;;;23.20;98.20;;;;;;4128562;28;20978;-84
2021/07/17 19:27:18;;;;;;;6.17;3.13;;;23.20;97.60;;;;;;4124209;28;20491;-81
2021/07/17 19:29:22;;;;;;;7.53;2.93;;;23.10;98.30;;;;;;4126102;28;20468;-84
2021/07/17 19:31:27;;;;;;;7.60;3.53;;;23.10;98.30;;;;;;4128264;28;20882;-82
2021/07/17 19:33:31;;;;;;;10.63;6.20;;;23.20;98.30;;;;;;4130244;28;20525;-82
2021/07/17 19:35:38;;;;;;;8.23;4.87;;;23.20;98.30;;;;;;4129395;28;20467;-81
2021/07/17 19:37:43;;;;;;;8.20;4.30;;;23.10;98.30;;;;;;4130124;28;20499;-81
2021/07/17 19:39:46;;;;;;;6.87;3.90;;;23.10;98.30;;;;;;4129531;28;20475;-81
2021/07/17 19:41:49;;;;;;;4.67;3.63;;;23.00;98.30;;;;;;4129663;28;20526;-82
2021/07/17 19:43:56;;;;;;;4.93;3.33;;;23.00;98.30;;;;;;4129654;28;20519;-82
2021/07/17 19:45:59;;;;;;;4.50;3.20;;;22.90;98.30;;;;;;4127045;28;20477;-82
2021/07/17 19:48:02;;;;;;;4.80;3.17;;;22.90;98.30;;;;;;4128807;28;20501;-82
2021/07/17 19:50:07;;;;;;;5.63;3.50;;;22.80;98.30;;;;;;4129382;28;20471;-82
2021/07/17 19:52:11;;;;;;;3.30;2.70;;;22.80;98.30;;;;;;4120062;28;20534;-82
2021/07/17 19:54:14;;;;;;;4.17;2.80;;;22.80;98.30;;;;;;4125037;28;20487;-81
2021/07/17 19:56:20;;;;;;;3.87;3.07;;;22.70;98.30;;;;;;4127315;28;20511;-82
2021/07/17 19:58:23;;;;;;;3.03;2.73;;;22.80;98.30;;;;;;4126375;28;20459;-82
2021/07/17 20:00:26;;;;;;;4.07;2.63;;;22.80;98.30;;;;;;4120613;28;20471;-82
2021/07/17 20:02:33;;;;;;;3.60;2.70;;;22.70;98.30;;;;;;4126534;28;20473;-82
2021/07/17 20:04:37;;;;;;;5.70;4.70;;;22.70;98.30;;;;;;4126900;28;20498;-81
2021/07/17 20:06:40;;;;;;;5.17;3.13;;;22.60;98.30;;;;;;4118336;28;20475;-80
2021/07/17 20:08:44;;;;;;;3.33;3.03;;;22.70;98.30;;;;;;4127183;28;20467;-81
2021/07/17 20:10:47;;;;;;;5.43;3.90;;;22.60;98.30;;;;;;4123469;28;20471;-83
2021/07/17 20:12:53;;;;;;;5.50;3.80;;;22.60;98.30;;;;;;4123083;28;20525;-84
2021/07/17 20:14:56;;;;;;;4.33;3.20;;;22.40;98.30;;;;;;4122764;28;20497;-76
2021/07/17 20:16:59;;;;;;;4.60;3.33;;;22.30;98.30;;;;;;4117123;28;20468;-75
2021/07/17 20:19:02;;;;;;;7.97;3.83;;;22.30;98.30;;;;;;4129359;28;20478;-76
2021/07/17 20:21:05;;;;;;;4.10;3.30;;;22.20;98.30;;;;;;4118207;28;20849;-76
2021/07/17 20:23:09;;;;;;;5.47;3.30;;;22.10;98.30;;;;;;4114484;28;20498;-76
2021/07/17 20:25:15;;;;;;;6.70;3.47;;;22.20;98.30;;;;;;4114518;28;20845;-77
2021/07/17 20:27:18;;;;;;;6.90;3.73;;;22.00;98.30;;;;;;4117505;28;20527;-76
2021/07/17 20:29:21;;;;;;;8.80;4.37;;;22.00;98.30;;;;;;4129380;28;20463;-76
2021/07/17 20:31:25;;;;;;;5.60;3.93;;;22.00;98.30;;;;;;4127932;28;20849;-76
2021/07/17 20:33:28;;;;;;;7.40;4.33;;;22.00;98.30;;;;;;4126159;28;20511;-76
2021/07/17 20:35:32;;;;;;;8.50;3.87;;;22.00;98.30;;;;;;4129958;28;20475;-77
2021/07/17 20:37:39;;;;;;;12.20;4.00;;;22.00;98.30;;;;;;4129135;28;20496;-78
2021/07/17 20:39:43;;;;;;;6.73;3.90;;;22.00;98.30;;;;;;4128324;28;20470;-76
2021/07/17 20:41:47;;;;;;;11.80;4.40;;;22.00;98.30;;;;;;4130249;28;20477;-75
